createdAt,value
2017-05-22T00:00:45.461Z,14.60
2017-05-22T00:01:43.727Z,14.60
2017-05-22T00:02:42.745Z,14.60
2017-05-22T00:03:41.012Z,14.60
2017-05-22T00:04:39.288Z,14.60
2017-05-22T00:05:38.176Z,14.60
2017-05-22T00:06:36.421Z,14.50
2017-05-22T00:07:34.692Z,14.50
2017-05-22T00:08:33.447Z,14.50
2017-05-22T00:09:31.692Z,14.50
2017-05-22T00:10:30.719Z,14.40
2017-05-22T00:11:29.684Z,14.50
2017-05-22T00:12:27.960Z,14.50
2017-05-22T00:13:26.212Z,14.30
2017-05-22T00:14:24.484Z,14.10
2017-05-22T00:15:22.742Z,14.00
2017-05-22T00:16:21.033Z,14.00
2017-05-22T00:17:19.295Z,14.00
2017-05-22T00:18:17.561Z,13.90
2017-05-22T00:19:16.722Z,14.00
2017-05-22T00:20:15.008Z,14.00
2017-05-22T00:21:13.275Z,14.00
2017-05-22T00:22:11.588Z,14.00
2017-05-22T00:23:10.523Z,14.10
2017-05-22T00:24:08.965Z,14.00
2017-05-22T00:25:07.391Z,14.00
2017-05-22T00:26:05.633Z,14.00
2017-05-22T00:27:05.416Z,14.00
2017-05-22T00:28:04.581Z,14.00
2017-05-22T00:29:04.451Z,14.00
2017-05-22T00:30:02.728Z,14.00
2017-05-22T00:31:01.009Z,14.00
2017-05-22T00:32:00.137Z,14.00
2017-05-22T00:33:01.443Z,14.00
2017-05-22T00:33:59.801Z,14.00
2017-05-22T00:34:59.812Z,14.00
2017-05-22T00:35:59.119Z,13.90
2017-05-22T00:36:58.389Z,13.90
2017-05-22T00:37:58.146Z,13.90
2017-05-22T00:38:56.503Z,13.90
2017-05-22T00:39:56.331Z,13.80
2017-05-22T00:40:57.336Z,13.80
2017-05-22T00:41:57.005Z,13.80
2017-05-22T00:42:56.030Z,13.70
2017-05-22T00:43:55.728Z,13.80
2017-05-22T00:44:54.649Z,13.70
2017-05-22T00:45:53.671Z,13.70
2017-05-22T00:46:53.185Z,13.70
2017-05-22T00:47:53.318Z,13.60
2017-05-22T00:48:56.610Z,13.60
2017-05-22T00:49:55.722Z,13.60
2017-05-22T00:50:53.975Z,13.60
2017-05-22T00:51:53.116Z,13.60
2017-05-22T00:52:51.385Z,13.60
2017-05-22T00:53:50.658Z,13.50
2017-05-22T00:54:48.936Z,13.60
2017-05-22T00:55:47.264Z,13.60
2017-05-22T00:56:45.849Z,13.50
2017-05-22T00:57:44.856Z,13.60
2017-05-22T00:58:43.118Z,13.60
2017-05-22T00:59:41.369Z,13.60
2017-05-22T01:00:40.636Z,13.60
2017-05-22T01:01:39.856Z,13.50
2017-05-22T01:02:38.129Z,13.40
2017-05-22T01:03:37.412Z,13.40
2017-05-22T01:04:36.532Z,13.40
2017-05-22T01:05:36.391Z,13.30
2017-05-22T01:06:34.684Z,13.30
2017-05-22T01:07:34.275Z,13.30
2017-05-22T01:08:33.140Z,13.30
2017-05-22T01:09:32.455Z,13.30
2017-05-22T01:10:31.657Z,13.20
2017-05-22T01:11:29.915Z,13.30
2017-05-22T01:12:29.401Z,13.30
2017-05-22T01:13:27.663Z,13.30
2017-05-22T01:14:26.380Z,13.30
2017-05-22T01:15:26.444Z,13.30
2017-05-22T01:16:24.875Z,13.30
2017-05-22T01:17:23.131Z,13.20
2017-05-22T01:18:21.652Z,13.20
2017-05-22T01:19:19.906Z,13.20
2017-05-22T01:20:18.167Z,13.20
2017-05-22T01:21:17.005Z,13.30
2017-05-22T01:22:15.267Z,13.30
2017-05-22T01:23:14.153Z,13.30
2017-05-22T01:24:12.415Z,13.30
2017-05-22T01:25:10.692Z,13.30
2017-05-22T01:26:09.021Z,13.30
2017-05-22T01:27:08.884Z,13.30
2017-05-22T01:28:08.012Z,13.40
2017-05-22T01:29:08.013Z,13.30
2017-05-22T01:30:07.116Z,13.30
2017-05-22T01:31:05.505Z,13.40
2017-05-22T01:32:04.877Z,13.40
2017-05-22T01:33:04.009Z,13.40
2017-05-22T01:34:02.965Z,13.40
2017-05-22T01:35:02.230Z,13.40
2017-05-22T01:36:00.492Z,13.40
2017-05-22T01:36:59.738Z,13.40
2017-05-22T01:37:58.005Z,13.40
2017-05-22T01:38:56.276Z,13.50
2017-05-22T01:39:55.381Z,13.50
2017-05-22T01:40:53.646Z,13.50
2017-05-22T01:41:51.904Z,13.60
2017-05-22T01:42:50.177Z,13.60
2017-05-22T01:43:49.886Z,13.60
2017-05-22T01:44:48.221Z,13.60
2017-05-22T01:45:47.245Z,13.60
2017-05-22T01:46:45.504Z,13.60
2017-05-22T01:47:44.258Z,13.60
2017-05-22T01:48:44.761Z,13.70
2017-05-22T01:49:43.778Z,13.60
2017-05-22T01:50:42.036Z,13.70
2017-05-22T01:51:41.307Z,13.70
2017-05-22T01:52:41.100Z,13.70
2017-05-22T01:53:39.376Z,13.70
2017-05-22T01:54:39.135Z,13.70
2017-05-22T01:55:37.425Z,13.70
2017-05-22T01:56:35.690Z,13.70
2017-05-22T01:57:36.204Z,13.60
2017-05-22T01:58:35.325Z,13.60
2017-05-22T01:59:33.589Z,13.60
2017-05-22T02:00:31.859Z,13.60
2017-05-22T02:01:30.814Z,13.60
2017-05-22T02:02:30.651Z,13.60
2017-05-22T02:03:31.041Z,13.60
2017-05-22T02:04:29.295Z,13.60
2017-05-22T02:05:29.112Z,13.60
2017-05-22T02:06:27.476Z,13.70
2017-05-22T02:07:26.481Z,13.70
2017-05-22T02:08:24.752Z,13.70
2017-05-22T02:09:22.991Z,13.70
2017-05-22T02:10:22.159Z,13.70
2017-05-22T02:11:20.451Z,13.70
2017-05-22T02:12:19.484Z,13.70
2017-05-22T02:13:17.866Z,13.70
2017-05-22T02:14:16.104Z,13.70
2017-05-22T02:15:15.212Z,13.70
2017-05-22T02:16:13.874Z,13.70
2017-05-22T02:17:12.136Z,13.70
2017-05-22T02:18:11.348Z,13.70
2017-05-22T02:19:09.632Z,13.70
2017-05-22T02:20:09.591Z,13.70
2017-05-22T02:21:07.906Z,13.70
2017-05-22T02:22:06.163Z,13.70
2017-05-22T02:23:06.241Z,13.70
2017-05-22T02:24:04.998Z,13.70
2017-05-22T02:25:03.863Z,13.70
2017-05-22T02:26:02.132Z,13.80
2017-05-22T02:27:00.388Z,13.70
2017-05-22T02:28:00.031Z,13.70
2017-05-22T02:28:58.948Z,13.80
2017-05-22T02:29:57.214Z,13.80
2017-05-22T02:30:56.113Z,13.80
2017-05-22T02:31:55.006Z,13.80
2017-05-22T02:32:53.250Z,13.80
2017-05-22T02:33:53.868Z,13.80
2017-05-22T02:34:53.240Z,13.80
2017-05-22T02:35:51.496Z,13.80
2017-05-22T02:36:51.537Z,13.80
2017-05-22T02:37:50.760Z,13.80
2017-05-22T02:38:49.107Z,13.80
2017-05-22T02:39:47.382Z,13.70
2017-05-22T02:40:46.494Z,13.80
2017-05-22T02:41:44.744Z,13.80
2017-05-22T02:42:43.000Z,13.80
2017-05-22T02:43:41.376Z,13.70
2017-05-22T02:44:39.650Z,13.70
2017-05-22T02:45:38.104Z,13.70
2017-05-22T02:46:36.381Z,13.70
2017-05-22T02:47:35.420Z,13.70
2017-05-22T02:48:34.474Z,13.60
2017-05-22T02:49:32.759Z,13.60
2017-05-22T02:50:31.997Z,13.60
2017-05-22T02:51:31.076Z,13.60
2017-05-22T02:52:29.328Z,13.60
2017-05-22T02:53:28.870Z,13.50
2017-05-22T02:54:27.150Z,13.50
2017-05-22T02:55:25.436Z,13.50
2017-05-22T02:56:23.793Z,13.50
2017-05-22T02:57:23.003Z,13.60
2017-05-22T02:58:23.190Z,13.50
2017-05-22T02:59:22.534Z,13.50
2017-05-22T03:00:21.886Z,13.50
2017-05-22T03:01:20.503Z,13.40
2017-05-22T03:02:19.628Z,13.40
2017-05-22T03:03:18.467Z,13.40
2017-05-22T03:04:18.907Z,13.40
2017-05-22T03:05:17.170Z,13.40
2017-05-22T03:06:15.483Z,13.40
2017-05-22T03:07:15.721Z,13.40
2017-05-22T03:08:16.342Z,13.30
2017-05-22T03:09:15.521Z,13.40
2017-05-22T03:10:15.591Z,13.30
2017-05-22T03:11:14.415Z,13.30
2017-05-22T03:12:14.424Z,13.30
2017-05-22T03:13:13.686Z,13.30
2017-05-22T03:14:12.502Z,13.30
2017-05-22T03:15:10.856Z,13.30
2017-05-22T03:16:09.986Z,13.30
2017-05-22T03:17:08.274Z,13.30
2017-05-22T03:18:06.528Z,13.30
2017-05-22T03:19:04.807Z,13.30
2017-05-22T03:20:03.075Z,13.30
2017-05-22T03:21:01.339Z,13.30
2017-05-22T03:21:59.593Z,13.30
2017-05-22T03:22:58.687Z,13.30
2017-05-22T03:23:56.981Z,13.30
2017-05-22T03:24:56.795Z,13.20
2017-05-22T03:25:55.800Z,13.10
2017-05-22T03:26:54.040Z,13.10
2017-05-22T03:27:52.312Z,13.10
2017-05-22T03:28:51.553Z,13.10
2017-05-22T03:29:50.566Z,13.00
2017-05-22T03:30:48.860Z,12.90
2017-05-22T03:31:47.976Z,12.80
2017-05-22T03:32:46.272Z,12.80
2017-05-22T03:33:45.116Z,12.80
2017-05-22T03:34:43.425Z,12.70
2017-05-22T03:35:41.687Z,12.70
2017-05-22T03:36:40.828Z,12.70
2017-05-22T03:37:39.096Z,12.70
2017-05-22T03:38:37.976Z,12.70
2017-05-22T03:39:36.280Z,12.70
2017-05-22T03:40:34.546Z,12.80
2017-05-22T03:41:32.809Z,12.80
2017-05-22T03:42:31.095Z,12.80
2017-05-22T03:43:30.732Z,12.80
2017-05-22T03:44:28.982Z,12.80
2017-05-22T03:45:27.299Z,12.80
2017-05-22T03:46:25.562Z,12.90
2017-05-22T03:47:24.782Z,12.90
2017-05-22T03:48:23.103Z,12.90
2017-05-22T03:49:23.021Z,12.90
2017-05-22T03:50:22.395Z,12.90
2017-05-22T03:51:21.455Z,12.90
2017-05-22T03:52:20.666Z,12.90
2017-05-22T03:53:19.070Z,12.90
2017-05-22T03:54:17.312Z,12.90
2017-05-22T03:55:15.567Z,12.90
2017-05-22T03:56:13.870Z,12.90
2017-05-22T03:57:12.124Z,12.90
2017-05-22T03:58:11.295Z,13.00
2017-05-22T03:59:09.603Z,13.00
2017-05-22T04:00:07.985Z,13.00
2017-05-22T04:01:06.256Z,13.10
2017-05-22T04:02:06.081Z,13.00
2017-05-22T04:03:05.410Z,13.00
2017-05-22T04:04:04.242Z,13.10
2017-05-22T04:05:02.517Z,13.00
2017-05-22T04:06:03.017Z,13.00
2017-05-22T04:07:02.835Z,13.00
2017-05-22T04:08:01.096Z,13.00
2017-05-22T04:09:00.097Z,13.00
2017-05-22T04:09:59.018Z,13.00
2017-05-22T04:10:57.282Z,13.00
2017-05-22T04:11:56.257Z,13.00
2017-05-22T04:12:55.504Z,13.10
2017-05-22T04:13:54.258Z,13.10
2017-05-22T04:14:53.125Z,13.10
2017-05-22T04:15:51.452Z,13.10
2017-05-22T04:16:49.725Z,13.10
2017-05-22T04:17:48.407Z,13.10
2017-05-22T04:18:46.677Z,13.20
2017-05-22T04:19:44.945Z,13.20
2017-05-22T04:20:43.436Z,13.20
2017-05-22T04:21:42.586Z,13.20
2017-05-22T04:22:42.918Z,13.20
2017-05-22T04:23:41.244Z,13.20
2017-05-22T04:24:39.515Z,13.20
2017-05-22T04:25:38.620Z,13.10
2017-05-22T04:26:37.115Z,13.20
2017-05-22T04:27:36.309Z,13.20
2017-05-22T04:28:34.556Z,13.20
2017-05-22T04:29:33.059Z,13.20
2017-05-22T04:30:31.936Z,13.20
2017-05-22T04:31:32.460Z,13.20
2017-05-22T04:32:32.529Z,13.20
2017-05-22T04:33:32.830Z,13.30
2017-05-22T04:34:31.608Z,13.40
2017-05-22T04:35:31.857Z,13.30
2017-05-22T04:36:31.417Z,13.40
2017-05-22T04:37:30.775Z,13.40
2017-05-22T04:38:30.232Z,13.40
2017-05-22T04:39:30.423Z,13.40
2017-05-22T04:40:31.387Z,13.40
2017-05-22T04:41:30.979Z,13.50
2017-05-22T04:42:31.430Z,13.50
2017-05-22T04:43:31.270Z,13.50
2017-05-22T04:44:29.608Z,13.60
2017-05-22T04:45:30.195Z,13.60
2017-05-22T04:46:33.208Z,13.70
2017-05-22T04:47:32.097Z,13.70
2017-05-22T04:48:30.359Z,13.80
2017-05-22T04:49:30.146Z,13.80
2017-05-22T04:50:30.140Z,13.90
2017-05-22T04:51:29.328Z,13.90
2017-05-22T04:53:29.484Z,14.00
2017-05-22T04:54:28.623Z,14.00
2017-05-22T04:55:27.828Z,14.00
2017-05-22T04:56:27.957Z,14.00
2017-05-22T04:57:27.011Z,14.10
2017-05-22T04:58:28.345Z,14.20
2017-05-22T04:59:29.784Z,14.20
2017-05-22T05:00:29.895Z,14.30
2017-05-22T05:01:29.354Z,14.30
2017-05-22T05:02:28.206Z,14.40
2017-05-22T05:03:27.302Z,14.50
2017-05-22T05:04:27.513Z,14.50
2017-05-22T05:05:26.283Z,14.50
2017-05-22T05:06:26.934Z,14.50
2017-05-22T05:07:27.041Z,14.60
2017-05-22T05:08:25.754Z,14.60
2017-05-22T05:09:26.756Z,14.70
2017-05-22T05:10:25.782Z,14.70
2017-05-22T05:11:25.247Z,14.70
2017-05-22T05:12:23.488Z,14.80
2017-05-22T05:13:23.053Z,14.90
2017-05-22T05:14:23.895Z,14.80
2017-05-22T05:15:23.987Z,14.80
2017-05-22T05:16:23.450Z,14.90
2017-05-22T05:17:23.976Z,14.90
2017-05-22T05:18:24.736Z,15.00
2017-05-22T05:19:24.750Z,15.00
2017-05-22T05:20:24.040Z,15.10
2017-05-22T05:21:23.201Z,15.10
2017-05-22T05:22:25.099Z,15.10
2017-05-22T05:23:25.448Z,15.20
2017-05-22T05:24:24.420Z,15.30
2017-05-22T05:25:23.394Z,15.30
2017-05-22T05:26:23.044Z,15.40
2017-05-22T05:27:23.756Z,15.40
2017-05-22T05:28:24.531Z,15.40
2017-05-22T05:29:22.836Z,15.40
2017-05-22T05:30:23.470Z,15.40
2017-05-22T05:31:24.265Z,15.40
2017-05-22T05:32:24.239Z,15.50
2017-05-22T05:33:24.703Z,15.60
2017-05-22T05:34:23.296Z,15.60
2017-05-22T05:35:23.129Z,15.60
2017-05-22T05:36:23.646Z,15.50
2017-05-22T05:37:22.763Z,15.40
2017-05-22T05:38:21.147Z,15.50
2017-05-22T05:39:22.105Z,15.50
2017-05-22T05:40:22.039Z,15.50
2017-05-22T05:41:22.215Z,15.60
2017-05-22T05:42:24.560Z,15.80
2017-05-22T05:43:23.523Z,15.90
2017-05-22T05:44:24.934Z,16.20
2017-05-22T05:45:24.684Z,16.40
2017-05-22T05:46:24.172Z,16.30
2017-05-22T05:47:24.165Z,16.30
2017-05-22T05:48:24.640Z,16.30
2017-05-22T05:49:23.448Z,16.40
2017-05-22T05:50:21.844Z,16.60
2017-05-22T05:51:22.916Z,16.70
2017-05-22T05:52:21.772Z,16.80
2017-05-22T05:53:23.053Z,16.90
2017-05-22T05:54:24.144Z,17.10
2017-05-22T05:55:24.788Z,17.10
2017-05-22T05:56:23.875Z,17.20
2017-05-22T05:57:23.607Z,17.40
2017-05-22T05:58:26.445Z,17.50
2017-05-22T05:59:24.695Z,17.70
2017-05-22T06:00:23.352Z,17.90
2017-05-22T06:01:22.064Z,17.90
2017-05-22T06:02:22.807Z,18.10
2017-05-22T06:03:21.947Z,18.20
2017-05-22T06:04:21.895Z,18.60
2017-05-22T06:05:20.484Z,19.10
2017-05-22T06:06:19.641Z,19.30
2017-05-22T06:07:20.913Z,19.30
2017-05-22T06:08:21.889Z,19.20
2017-05-22T06:09:26.302Z,19.20
2017-05-22T06:10:25.360Z,19.10
2017-05-22T06:11:23.616Z,19.20
2017-05-22T06:12:24.396Z,19.20
2017-05-22T06:13:22.677Z,19.40
2017-05-22T06:14:21.141Z,19.70
2017-05-22T06:15:20.556Z,19.90
2017-05-22T06:16:19.946Z,20.30
2017-05-22T06:17:20.373Z,20.40
2017-05-22T06:18:18.659Z,20.50
2017-05-22T06:19:17.002Z,20.40
2017-05-22T06:20:16.581Z,20.40
2017-05-22T06:21:16.646Z,20.40
2017-05-22T06:22:15.328Z,20.40
2017-05-22T06:23:13.637Z,20.50
2017-05-22T06:24:13.482Z,20.70
2017-05-22T06:25:12.077Z,21.10
2017-05-22T06:26:11.726Z,21.60
2017-05-22T06:27:10.015Z,22.30
2017-05-22T06:28:11.810Z,22.70
2017-05-22T06:29:11.051Z,23.10
2017-05-22T06:30:09.359Z,22.90
2017-05-22T06:31:07.660Z,22.50
2017-05-22T06:32:05.923Z,22.50
2017-05-22T06:33:04.190Z,22.70
2017-05-22T06:34:03.411Z,23.00
2017-05-22T06:35:01.706Z,23.40
2017-05-22T06:36:00.934Z,23.80
2017-05-22T06:37:00.926Z,24.50
2017-05-22T06:38:01.212Z,25.20
2017-05-22T06:38:59.474Z,25.60
2017-05-22T06:39:57.736Z,26.00
2017-05-22T06:40:56.826Z,26.50
2017-05-22T06:41:56.042Z,27.00
2017-05-22T06:42:54.325Z,27.60
2017-05-22T06:43:52.565Z,27.90
2017-05-22T06:44:50.959Z,28.60
2017-05-22T06:45:49.224Z,28.90
2017-05-22T06:46:47.548Z,28.80
2017-05-22T06:47:46.528Z,28.80
2017-05-22T06:48:44.808Z,28.50
2017-05-22T06:49:43.095Z,28.40
2017-05-22T06:50:41.992Z,27.60
2017-05-22T06:51:40.287Z,26.70
2017-05-22T06:52:39.459Z,26.30
2017-05-22T06:53:37.732Z,25.80
2017-05-22T06:54:36.941Z,25.60
2017-05-22T06:55:37.530Z,25.50
2017-05-22T06:56:39.242Z,25.60
2017-05-22T06:57:37.508Z,26.00
2017-05-22T06:58:35.752Z,25.90
2017-05-22T06:59:34.752Z,26.10
2017-05-22T07:00:33.174Z,26.50
2017-05-22T07:01:31.431Z,26.60
2017-05-22T07:02:30.672Z,26.40
2017-05-22T07:03:29.896Z,26.20
2017-05-22T07:04:28.147Z,26.00
2017-05-22T07:05:26.436Z,25.80
2017-05-22T07:06:25.016Z,25.90
2017-05-22T07:07:23.304Z,25.90
2017-05-22T07:08:25.592Z,26.20
2017-05-22T07:09:23.853Z,26.60
2017-05-22T07:10:22.131Z,27.40
2017-05-22T07:11:20.387Z,27.90
2017-05-22T07:12:18.661Z,28.50
2017-05-22T07:13:16.923Z,29.10
2017-05-22T07:14:15.175Z,29.70
2017-05-22T07:15:15.479Z,30.20
2017-05-22T07:16:14.479Z,30.70
2017-05-22T07:17:12.846Z,31.30
2017-05-22T07:18:11.185Z,31.30
2017-05-22T07:19:09.467Z,31.90
2017-05-22T07:20:08.922Z,32.10
2017-05-22T07:21:08.171Z,32.50
2017-05-22T07:22:06.506Z,32.70
2017-05-22T07:23:05.518Z,32.90
2017-05-22T07:24:05.015Z,33.20
2017-05-22T07:25:05.775Z,33.30
2017-05-22T07:26:04.318Z,32.90
2017-05-22T07:27:04.412Z,33.20
2017-05-22T07:28:02.769Z,33.10
2017-05-22T07:29:01.023Z,33.50
2017-05-22T07:29:59.496Z,33.60
2017-05-22T07:30:57.754Z,33.40
2017-05-22T07:31:56.347Z,33.40
2017-05-22T07:32:55.424Z,33.00
2017-05-22T07:33:53.844Z,32.60
2017-05-22T07:34:52.220Z,32.20
2017-05-22T07:35:50.480Z,32.10
2017-05-22T07:36:48.745Z,32.00
2017-05-22T07:37:47.030Z,32.00
2017-05-22T07:38:46.815Z,32.00
2017-05-22T07:39:45.111Z,31.80
2017-05-22T07:40:44.267Z,31.40
2017-05-22T07:41:43.351Z,31.40
2017-05-22T07:42:41.646Z,31.50
2017-05-22T07:43:40.395Z,31.60
2017-05-22T07:44:38.676Z,31.50
2017-05-22T07:45:38.371Z,32.00
2017-05-22T07:46:36.648Z,31.70
2017-05-22T07:47:34.966Z,31.20
2017-05-22T07:48:34.555Z,31.30
2017-05-22T07:49:35.245Z,31.20
2017-05-22T07:50:33.518Z,30.70
2017-05-22T07:51:31.792Z,30.40
2017-05-22T07:52:30.096Z,30.40
2017-05-22T07:53:29.006Z,30.30
2017-05-22T07:54:28.420Z,30.10
2017-05-22T07:55:26.691Z,30.40
2017-05-22T07:56:24.986Z,30.30
2017-05-22T07:57:24.007Z,30.80
2017-05-22T07:58:22.261Z,30.80
2017-05-22T07:59:20.537Z,31.30
2017-05-22T08:00:20.424Z,31.80
2017-05-22T08:01:18.686Z,32.00
2017-05-22T08:02:17.630Z,32.00
2017-05-22T08:03:16.048Z,31.60
2017-05-22T08:04:14.329Z,31.70
2017-05-22T08:05:12.637Z,31.60
2017-05-22T08:06:10.987Z,31.90
2017-05-22T08:07:09.266Z,32.30
2017-05-22T08:08:08.017Z,32.50
2017-05-22T08:09:06.424Z,32.80
2017-05-22T08:10:05.663Z,32.90
2017-05-22T08:11:04.013Z,32.90
2017-05-22T08:12:03.787Z,32.60
2017-05-22T08:13:03.635Z,32.50
2017-05-22T08:14:04.153Z,32.80
2017-05-22T08:15:04.929Z,32.40
2017-05-22T08:16:04.856Z,32.20
2017-05-22T08:17:03.140Z,31.70
2017-05-22T08:18:03.616Z,31.20
2017-05-22T08:19:04.175Z,31.20
2017-05-22T08:20:03.317Z,30.70
2017-05-22T08:21:02.188Z,30.30
2017-05-22T08:22:01.213Z,30.10
2017-05-22T08:23:00.355Z,29.90
2017-05-22T08:23:59.419Z,29.80
2017-05-22T08:24:57.709Z,29.80
2017-05-22T08:25:56.840Z,29.40
2017-05-22T08:26:56.470Z,29.10
2017-05-22T08:27:54.722Z,29.10
2017-05-22T08:28:55.195Z,28.70
2017-05-22T08:29:54.516Z,28.70
2017-05-22T08:30:54.735Z,29.00
2017-05-22T08:31:52.974Z,28.90
2017-05-22T08:32:51.991Z,28.50
2017-05-22T08:33:51.704Z,28.20
2017-05-22T08:34:49.957Z,27.80
2017-05-22T08:35:48.232Z,27.20
2017-05-22T08:36:46.505Z,26.70
2017-05-22T08:37:45.596Z,26.40
2017-05-22T08:38:43.875Z,25.90
2017-05-22T08:39:42.455Z,25.50
2017-05-22T08:40:45.059Z,25.20
2017-05-22T08:41:44.076Z,24.90
2017-05-22T08:42:42.315Z,24.60
2017-05-22T08:43:41.325Z,24.40
2017-05-22T08:44:39.637Z,24.40
2017-05-22T08:45:38.224Z,24.20
2017-05-22T08:46:36.501Z,24.20
2017-05-22T08:47:34.737Z,24.10
2017-05-22T08:48:34.413Z,24.00
2017-05-22T08:49:32.866Z,23.80
2017-05-22T08:50:31.150Z,23.70
2017-05-22T08:51:29.416Z,23.70
2017-05-22T08:52:27.720Z,23.70
2017-05-22T08:53:27.163Z,23.60
2017-05-22T08:54:25.483Z,23.60
2017-05-22T08:55:24.850Z,23.60
2017-05-22T08:56:25.339Z,23.50
2017-05-22T08:57:23.747Z,23.50
2017-05-22T08:58:22.618Z,23.40
2017-05-22T08:59:21.741Z,23.40
2017-05-22T09:00:20.860Z,23.40
2017-05-22T09:01:19.155Z,23.50
2017-05-22T09:02:18.516Z,23.60
2017-05-22T09:03:17.714Z,23.70
2017-05-22T09:04:16.127Z,23.80
2017-05-22T09:05:15.125Z,23.80
2017-05-22T09:06:14.127Z,23.80
2017-05-22T09:07:12.731Z,24.00
2017-05-22T09:08:11.020Z,24.10
2017-05-22T09:09:09.528Z,24.20
2017-05-22T09:10:08.531Z,24.30
2017-05-22T09:11:06.937Z,24.40
2017-05-22T09:12:05.205Z,24.40
2017-05-22T09:13:03.443Z,24.60
2017-05-22T09:14:01.737Z,24.70
2017-05-22T09:15:00.136Z,24.80
2017-05-22T09:15:59.823Z,24.90
2017-05-22T09:16:58.819Z,25.00
2017-05-22T09:17:57.072Z,25.10
2017-05-22T09:18:57.382Z,25.20
2017-05-22T09:19:55.631Z,25.20
2017-05-22T09:20:54.309Z,25.30
2017-05-22T09:21:53.487Z,25.20
2017-05-22T09:22:52.424Z,25.20
2017-05-22T09:23:51.436Z,25.00
2017-05-22T09:24:49.717Z,25.10
2017-05-22T09:25:50.092Z,25.00
2017-05-22T09:26:49.289Z,25.00
2017-05-22T09:27:47.576Z,24.90
2017-05-22T09:28:46.556Z,25.00
2017-05-22T09:29:45.149Z,25.00
2017-05-22T09:30:44.480Z,25.00
2017-05-22T09:31:42.745Z,25.00
2017-05-22T09:32:41.797Z,25.10
2017-05-22T09:33:40.568Z,25.00
2017-05-22T09:34:38.835Z,24.80
2017-05-22T09:35:37.246Z,24.70
2017-05-22T09:36:36.347Z,24.50
2017-05-22T09:37:35.103Z,24.50
2017-05-22T09:38:34.189Z,24.30
2017-05-22T09:39:32.456Z,24.40
2017-05-22T09:40:30.754Z,24.20
2017-05-22T09:41:29.987Z,24.20
2017-05-22T09:42:28.443Z,24.20
2017-05-22T09:43:26.726Z,24.10
2017-05-22T09:44:25.688Z,24.10
2017-05-22T09:45:24.511Z,24.10
2017-05-22T09:46:23.558Z,24.10
2017-05-22T09:47:21.824Z,24.20
2017-05-22T09:48:20.072Z,24.20
2017-05-22T09:49:20.016Z,24.40
2017-05-22T09:50:19.044Z,24.50
2017-05-22T09:51:17.627Z,24.70
2017-05-22T09:52:15.915Z,24.80
2017-05-22T09:53:15.184Z,24.90
2017-05-22T09:54:15.375Z,24.80
2017-05-22T09:55:13.634Z,24.90
2017-05-22T09:56:11.919Z,25.00
2017-05-22T09:57:10.955Z,25.00
2017-05-22T09:58:09.248Z,25.20
2017-05-22T09:59:08.249Z,25.00
2017-05-22T10:00:06.546Z,24.90
2017-05-22T10:01:05.108Z,24.40
2017-05-22T10:02:04.335Z,24.00
2017-05-22T10:03:02.648Z,23.70
2017-05-22T10:04:00.911Z,23.60
2017-05-22T10:04:59.173Z,23.60
2017-05-22T10:05:57.656Z,23.60
2017-05-22T10:06:55.977Z,23.60
2017-05-22T10:07:54.234Z,23.60
2017-05-22T10:08:52.499Z,23.50
2017-05-22T10:09:51.983Z,23.60
2017-05-22T10:10:52.002Z,23.50
2017-05-22T10:11:50.580Z,23.60
2017-05-22T10:12:50.468Z,23.60
2017-05-22T10:13:48.712Z,23.70
2017-05-22T10:14:47.868Z,23.80
2017-05-22T10:15:46.643Z,23.80
2017-05-22T10:16:45.992Z,23.90
2017-05-22T10:17:45.347Z,24.10
2017-05-22T10:18:43.582Z,24.20
2017-05-22T10:19:41.833Z,24.20
2017-05-22T10:20:40.901Z,24.30
2017-05-22T10:21:40.194Z,24.30
2017-05-22T10:22:39.364Z,24.30
2017-05-22T10:23:39.816Z,24.30
2017-05-22T10:24:40.370Z,24.20
2017-05-22T10:25:39.482Z,24.10
2017-05-22T10:26:38.539Z,24.20
2017-05-22T10:27:37.379Z,24.20
2017-05-22T10:28:35.859Z,24.30
2017-05-22T10:29:35.206Z,24.30
2017-05-22T10:30:33.488Z,24.30
2017-05-22T10:31:32.185Z,24.10
2017-05-22T10:32:33.048Z,24.10
2017-05-22T10:33:32.190Z,24.10
2017-05-22T10:34:31.951Z,24.10
2017-05-22T10:35:30.946Z,24.10
2017-05-22T10:36:29.197Z,24.20
2017-05-22T10:37:29.181Z,24.20
2017-05-22T10:38:30.099Z,24.20
2017-05-22T10:39:29.855Z,23.90
2017-05-22T10:40:29.027Z,23.80
2017-05-22T10:41:28.246Z,23.70
2017-05-22T10:42:26.546Z,23.60
2017-05-22T10:43:25.545Z,23.50
2017-05-22T10:44:25.481Z,23.40
2017-05-22T10:45:24.455Z,23.30
2017-05-22T10:46:22.716Z,23.20
2017-05-22T10:47:24.312Z,23.20
2017-05-22T10:48:22.616Z,23.10
2017-05-22T10:49:21.663Z,23.10
2017-05-22T10:50:20.677Z,23.10
2017-05-22T10:51:19.025Z,23.20
2017-05-22T10:52:18.268Z,23.20
2017-05-22T10:53:17.360Z,23.20
2017-05-22T10:54:15.655Z,23.00
2017-05-22T10:55:13.928Z,23.00
2017-05-22T10:56:12.772Z,23.10
2017-05-22T10:57:12.775Z,23.20
2017-05-22T10:58:11.680Z,23.40
2017-05-22T10:59:11.305Z,23.60
2017-05-22T11:00:09.588Z,23.70
2017-05-22T11:01:09.849Z,23.70
2017-05-22T11:02:09.576Z,23.70
2017-05-22T11:03:10.268Z,23.60
2017-05-22T11:04:08.546Z,23.60
2017-05-22T11:05:06.818Z,23.40
2017-05-22T11:06:05.063Z,23.40
2017-05-22T11:07:03.353Z,23.40
2017-05-22T11:08:01.859Z,23.20
2017-05-22T11:09:00.907Z,23.30
2017-05-22T11:09:59.235Z,23.30
2017-05-22T11:10:57.661Z,23.30
2017-05-22T11:11:56.719Z,23.30
2017-05-22T11:12:55.697Z,23.20
2017-05-22T11:13:53.982Z,23.10
2017-05-22T11:14:52.318Z,23.20
2017-05-22T11:15:50.568Z,23.20
2017-05-22T11:16:50.280Z,23.00
2017-05-22T11:17:50.562Z,23.20
2017-05-22T11:18:48.843Z,23.30
2017-05-22T11:19:51.349Z,23.40
2017-05-22T11:20:50.313Z,23.50
2017-05-22T11:21:48.623Z,23.60
2017-05-22T11:22:49.403Z,23.60
2017-05-22T11:23:47.705Z,23.70
2017-05-22T11:24:46.771Z,23.70
2017-05-22T11:25:46.017Z,23.60
2017-05-22T11:26:44.286Z,23.50
2017-05-22T11:27:43.301Z,23.50
2017-05-22T11:28:41.568Z,23.50
2017-05-22T11:29:41.336Z,23.40
2017-05-22T11:30:41.358Z,23.40
2017-05-22T11:31:39.608Z,23.40
2017-05-22T11:32:39.536Z,23.40
2017-05-22T11:33:37.872Z,23.60
2017-05-22T11:34:36.121Z,23.40
2017-05-22T11:35:35.356Z,23.40
2017-05-22T11:36:33.753Z,23.50
2017-05-22T11:37:32.480Z,23.50
2017-05-22T11:38:31.714Z,23.50
2017-05-22T11:39:30.176Z,23.40
2017-05-22T11:40:28.469Z,23.40
2017-05-22T11:41:26.735Z,23.30
2017-05-22T11:42:25.805Z,23.10
2017-05-22T11:43:24.052Z,23.10
2017-05-22T11:44:22.328Z,23.20
2017-05-22T11:45:20.606Z,23.20
2017-05-22T11:46:19.175Z,23.40
2017-05-22T11:47:17.414Z,23.30
2017-05-22T11:48:15.733Z,23.30
2017-05-22T11:49:14.717Z,23.40
2017-05-22T11:50:13.976Z,23.40
2017-05-22T11:51:12.401Z,23.20
2017-05-22T11:52:10.688Z,23.00
2017-05-22T11:53:08.941Z,23.20
2017-05-22T11:54:07.224Z,23.20
2017-05-22T11:55:05.467Z,23.20
2017-05-22T11:56:03.736Z,23.30
2017-05-22T11:57:02.017Z,23.30
2017-05-22T11:58:02.036Z,23.40
2017-05-22T11:59:00.311Z,23.50
2017-05-22T11:59:58.619Z,23.70
2017-05-22T12:00:57.624Z,23.90
2017-05-22T12:01:55.896Z,24.00
2017-05-22T12:02:54.725Z,24.00
2017-05-22T12:03:53.161Z,24.10
2017-05-22T12:04:52.663Z,24.10
2017-05-22T12:05:51.425Z,24.10
2017-05-22T12:06:49.898Z,24.10
2017-05-22T12:07:49.292Z,24.10
2017-05-22T12:08:47.550Z,24.20
2017-05-22T12:09:45.820Z,24.30
2017-05-22T12:10:44.152Z,24.30
2017-05-22T12:11:43.206Z,24.40
2017-05-22T12:12:41.456Z,24.30
2017-05-22T12:13:40.288Z,24.30
2017-05-22T12:14:40.184Z,24.20
2017-05-22T12:15:38.735Z,24.00
2017-05-22T12:16:37.197Z,23.90
2017-05-22T12:17:35.443Z,23.90
2017-05-22T12:18:34.765Z,23.90
2017-05-22T12:19:33.056Z,23.70
2017-05-22T12:20:32.067Z,23.60
2017-05-22T12:21:31.002Z,23.70
2017-05-22T12:22:31.793Z,23.80
2017-05-22T12:23:30.048Z,23.80
2017-05-22T12:24:29.207Z,23.90
2017-05-22T12:25:27.636Z,24.10
2017-05-22T12:26:25.883Z,24.20
2017-05-22T12:27:25.965Z,24.20
2017-05-22T12:28:26.219Z,24.20
2017-05-22T12:29:25.191Z,24.20
2017-05-22T12:30:23.484Z,24.10
2017-05-22T12:31:22.507Z,23.90
2017-05-22T12:32:20.757Z,24.10
2017-05-22T12:33:20.559Z,24.10
2017-05-22T12:34:19.554Z,24.20
2017-05-22T12:35:17.875Z,24.30
2017-05-22T12:36:16.173Z,24.40
2017-05-22T12:37:15.211Z,24.40
2017-05-22T12:38:13.531Z,24.50
2017-05-22T12:39:11.768Z,24.60
2017-05-22T12:40:10.099Z,24.40
2017-05-22T12:41:08.473Z,24.40